Kolt, Denmark
Current Conditions -  °F | °C
As of 8:50 PM on Wednesday 28 Jan 2015 (Local Time) from EKAH Reporting Station
Haze Haze  
Wind Chill: 32°   Ceiling: 800
Heat Index: 39°   Visibility: 2.4mi
Dew Point: 36°   Wind: 12mph
Humidity: 87%   Direction: 220°SW
Pressure: 28.88"   Gusts: NA
Location:  56.11°N, 10.07°E
Report Text: EKAH 281950Z AUTO 22010KT 170V260 3900NDV BR OVC008///04/02 Q0978
Loading
Personal Weather Stations






























Interactive Weather Map New forecast layout! Learn more

10-Day Weather Forecast

Advertisements
Track Severe Weather on mobile